Time;durP1;ratioP1;P1;durP2;ratioP2;P2;SDS_P1;SDS_P2;PMS_P1;PMS_P2;Temp;Humidity;BMP_temperature;BMP_pressure;BME280_temperature;BME280_humidity;BME280_pressure;Samples;Min_cycle;Max_cycle;Signal;HPM_P1;HPM_P2
2023/03/07 00:00:39;;;;;;;20.90;16.20;;;4.40;99.90;;;;;;5013218;28;20069;-69
2023/03/07 00:03:05;;;;;;;23.90;18.13;;;4.40;99.90;;;;;;5028864;28;20046;-69
2023/03/07 00:05:31;;;;;;;24.35;18.77;;;4.40;99.90;;;;;;5025459;28;20068;-68
2023/03/07 00:07:57;;;;;;;24.77;18.67;;;4.40;99.90;;;;;;5028017;28;20468;-68
2023/03/07 00:10:24;;;;;;;24.63;18.77;;;4.40;99.90;;;;;;5024509;28;20080;-69
2023/03/07 00:12:50;;;;;;;26.67;20.70;;;4.50;99.90;;;;;;5030113;28;20056;-69
2023/03/07 00:15:16;;;;;;;27.00;19.05;;;4.40;99.90;;;;;;5024795;28;20532;-68
2023/03/07 00:17:42;;;;;;;26.20;18.13;;;4.40;99.90;;;;;;5016614;28;20125;-69
2023/03/07 00:20:10;;;;;;;21.73;16.15;;;4.50;99.90;;;;;;5020837;28;20117;-68
2023/03/07 00:22:36;;;;;;;19.05;14.63;;;4.50;99.90;;;;;;5015371;28;20045;-68
2023/03/07 00:25:03;;;;;;;19.75;14.90;;;4.50;99.90;;;;;;5025803;28;20550;-68
2023/03/07 00:27:30;;;;;;;18.52;13.68;;;4.50;99.90;;;;;;5026149;28;20136;-68
2023/03/07 00:29:56;;;;;;;19.02;13.93;;;4.50;99.90;;;;;;5026323;28;21606;-68
2023/03/07 00:32:21;;;;;;;17.35;13.85;;;4.50;99.90;;;;;;5020719;28;20046;-68
2023/03/07 00:34:47;;;;;;;18.10;14.32;;;4.50;99.90;;;;;;5023370;28;20041;-68
2023/03/07 00:37:14;;;;;;;16.13;11.18;;;4.40;99.90;;;;;;5030270;28;20095;-68
2023/03/07 00:39:40;;;;;;;16.77;11.43;;;4.40;99.90;;;;;;5022831;28;20049;-68
2023/03/07 00:42:06;;;;;;;16.08;11.65;;;4.50;99.90;;;;;;5027161;28;20308;-68
2023/03/07 00:44:32;;;;;;;10.98;7.68;;;4.50;99.90;;;;;;5018322;28;20488;-68
2023/03/07 00:46:58;;;;;;;9.95;8.55;;;4.50;99.90;;;;;;5018232;28;20049;-68
2023/03/07 00:49:24;;;;;;;6.78;4.75;;;4.50;99.90;;;;;;5029559;28;20120;-68
2023/03/07 00:51:50;;;;;;;7.25;4.68;;;4.50;99.90;;;;;;5028492;28;20034;-68
2023/03/07 00:54:15;;;;;;;4.90;3.60;;;4.50;99.90;;;;;;5028993;28;20084;-68
2023/03/07 00:56:41;;;;;;;5.88;3.90;;;4.40;99.90;;;;;;5021312;28;20052;-69
2023/03/07 00:59:07;;;;;;;4.90;3.70;;;4.40;99.90;;;;;;5029686;28;20042;-69
2023/03/07 01:01:34;;;;;;;7.22;3.30;;;4.40;99.90;;;;;;5030395;28;20042;-68
2023/03/07 01:03:59;;;;;;;5.30;3.30;;;4.40;99.90;;;;;;5043330;28;20053;-68
2023/03/07 01:06:28;;;;;;;4.82;3.00;;;4.40;99.90;;;;;;5040586;28;20045;-68
2023/03/07 01:08:57;;;;;;;6.45;3.47;;;4.40;99.90;;;;;;5025213;28;20042;-68
2023/03/07 01:11:23;;;;;;;4.53;3.85;;;4.30;99.90;;;;;;5027582;28;20076;-68
2023/03/07 01:13:49;;;;;;;5.65;4.00;;;4.30;99.90;;;;;;5045632;28;20056;-68
2023/03/07 01:16:18;;;;;;;5.05;3.80;;;4.30;99.90;;;;;;5017688;28;20046;-68
2023/03/07 01:18:48;;;;;;;5.57;3.53;;;4.30;99.90;;;;;;5027164;28;20042;-68
2023/03/07 01:21:17;;;;;;;3.97;3.40;;;4.30;99.90;;;;;;5025436;28;20045;-68
2023/03/07 01:23:43;;;;;;;4.22;3.10;;;4.30;99.90;;;;;;5026011;28;20053;-68
2023/03/07 01:26:17;;;;;;;5.13;3.60;;;4.30;99.90;;;;;;5018934;28;20091;-68
2023/03/07 01:28:44;;;;;;;5.10;3.80;;;4.30;99.90;;;;;;5028782;28;20045;-68
2023/03/07 01:31:10;;;;;;;5.55;4.10;;;4.30;99.90;;;;;;5028969;28;20435;-67
2023/03/07 01:33:36;;;;;;;7.40;4.25;;;4.20;99.90;;;;;;5029354;28;20099;-68
2023/03/07 01:36:01;;;;;;;7.72;4.28;;;4.30;99.90;;;;;;5024556;28;20045;-68
2023/03/07 01:38:32;;;;;;;7.82;4.63;;;4.20;99.90;;;;;;5017675;28;20045;-68
2023/03/07 01:40:59;;;;;;;7.85;4.32;;;4.30;99.90;;;;;;5021358;28;20045;-70
2023/03/07 01:43:29;;;;;;;6.15;4.25;;;4.20;99.90;;;;;;5020482;28;20488;-70
2023/03/07 01:46:16;;;;;;;7.82;4.10;;;4.30;99.90;;;;;;5024644;28;20491;-68
2023/03/07 01:48:44;;;;;;;7.30;4.03;;;4.20;99.90;;;;;;5022960;28;20041;-68
2023/03/07 01:51:10;;;;;;;6.32;3.22;;;4.20;99.90;;;;;;5026454;28;21336;-68
2023/03/07 01:53:36;;;;;;;5.65;2.83;;;4.20;99.90;;;;;;5023867;28;20867;-68
2023/03/07 01:56:02;;;;;;;4.93;2.40;;;4.20;99.90;;;;;;5026649;28;20051;-68
2023/03/07 01:58:28;;;;;;;5.93;2.00;;;4.20;99.90;;;;;;5022997;28;20129;-68
2023/03/07 02:00:54;;;;;;;4.10;1.88;;;4.20;99.90;;;;;;5013714;28;20404;-68
2023/03/07 02:03:34;;;;;;;3.28;1.45;;;4.20;99.90;;;;;;5026689;28;20540;-68
2023/03/07 02:06:04;;;;;;;3.00;1.40;;;4.20;99.90;;;;;;5020962;28;20038;-69
2023/03/07 02:08:32;;;;;;;3.13;1.60;;;4.10;99.90;;;;;;5018313;28;20052;-69
2023/03/07 02:10:58;;;;;;;3.10;1.20;;;4.10;99.90;;;;;;5024777;28;20428;-69
2023/03/07 02:13:24;;;;;;;3.83;1.40;;;4.10;99.90;;;;;;5024816;28;20042;-68
2023/03/07 02:15:50;;;;;;;2.10;1.65;;;4.10;99.90;;;;;;5015354;28;20076;-68
2023/03/07 02:18:20;;;;;;;3.10;1.63;;;4.10;99.90;;;;;;5025641;28;20045;-68
2023/03/07 02:20:51;;;;;;;3.10;1.58;;;4.00;99.90;;;;;;5026464;28;20489;-69
2023/03/07 02:23:37;;;;;;;4.35;1.65;;;4.00;99.90;;;;;;5021115;28;20558;-67
2023/03/07 02:26:19;;;;;;;5.70;1.73;;;4.00;99.90;;;;;;5007582;28;20148;-69
2023/03/07 02:28:46;;;;;;;2.60;1.48;;;4.00;99.90;;;;;;5025141;28;20059;-68
2023/03/07 02:31:13;;;;;;;3.70;1.95;;;3.90;99.90;;;;;;5011172;28;20037;-68
2023/03/07 02:33:38;;;;;;;4.70;1.95;;;3.90;99.90;;;;;;5020801;28;20049;-68
2023/03/07 02:36:10;;;;;;;4.63;1.92;;;3.90;99.90;;;;;;5026107;28;20148;-68
2023/03/07 02:38:43;;;;;;;5.95;1.95;;;3.90;99.90;;;;;;5018173;28;20088;-68
2023/03/07 02:41:11;;;;;;;4.88;2.20;;;3.90;99.90;;;;;;5026560;28;20132;-68
2023/03/07 02:43:36;;;;;;;;;;;3.80;99.90;;;;;;5021966;28;20049;-69
2023/03/07 02:46:03;;;;;;;5.43;2.10;;;3.80;99.90;;;;;;5027837;28;20334;-69
2023/03/07 02:48:31;;;;;;;5.65;2.10;;;3.80;99.90;;;;;;5020014;28;20045;-68
2023/03/07 02:50:57;;;;;;;3.28;2.05;;;3.80;99.90;;;;;;5028960;28;20041;-67
2023/03/07 02:53:23;;;;;;;8.48;2.28;;;3.80;99.90;;;;;;5027429;28;20480;-67
2023/03/07 02:55:48;;;;;;;5.70;2.10;;;3.80;99.90;;;;;;5030799;28;20080;-67
2023/03/07 02:58:14;;;;;;;5.75;2.03;;;3.80;99.90;;;;;;5030357;28;20056;-67
2023/03/07 03:00:40;;;;;;;6.75;2.00;;;3.80;99.90;;;;;;5026556;28;20505;-67
2023/03/07 03:03:05;;;;;;;9.65;1.70;;;3.80;99.90;;;;;;5026871;28;20056;-67
2023/03/07 03:05:31;;;;;;;7.13;2.22;;;3.80;99.90;;;;;;5026063;28;20037;-67
2023/03/07 03:07:57;;;;;;;7.68;1.85;;;3.80;99.90;;;;;;5028861;28;20154;-67
2023/03/07 03:10:22;;;;;;;9.32;1.88;;;3.80;99.90;;;;;;5025108;28;20387;-67
2023/03/07 03:12:48;;;;;;;8.38;2.13;;;3.80;99.90;;;;;;5021538;28;20046;-67
2023/03/07 03:15:13;;;;;;;7.75;1.80;;;3.80;99.90;;;;;;5030827;28;20095;-67
2023/03/07 03:17:39;;;;;;;6.55;1.65;;;3.80;99.90;;;;;;5013501;28;20083;-67
2023/03/07 03:20:07;;;;;;;10.38;1.60;;;3.80;99.90;;;;;;5018839;28;20037;-68
2023/03/07 03:22:33;;;;;;;7.25;1.70;;;3.80;99.90;;;;;;5020740;28;20041;-67
2023/03/07 03:24:58;;;;;;;8.00;1.85;;;3.80;99.90;;;;;;5021132;28;20041;-67
2023/03/07 03:27:24;;;;;;;7.55;1.52;;;3.80;99.90;;;;;;5026815;28;20115;-67
2023/03/07 03:29:53;;;;;;;7.78;1.83;;;3.80;99.90;;;;;;5025263;28;20128;-67
2023/03/07 03:32:19;;;;;;;10.75;1.77;;;3.80;99.90;;;;;;5031917;28;20108;-67
2023/03/07 03:34:45;;;;;;;8.65;1.45;;;3.80;99.90;;;;;;5029851;28;20132;-68
2023/03/07 03:37:10;;;;;;;6.65;1.40;;;3.80;99.90;;;;;;5032812;28;20037;-68
2023/03/07 03:39:36;;;;;;;5.57;1.45;;;3.80;99.90;;;;;;5025240;28;20041;-67
2023/03/07 03:42:02;;;;;;;11.45;1.70;;;3.80;99.90;;;;;;5022832;28;20050;-67
2023/03/07 03:44:28;;;;;;;9.20;1.83;;;3.80;99.90;;;;;;5015257;28;20038;-67
2023/03/07 03:46:54;;;;;;;10.82;1.80;;;3.80;99.90;;;;;;5027067;28;20069;-67
2023/03/07 03:49:20;;;;;;;10.45;1.60;;;3.70;99.90;;;;;;5029534;28;20045;-67
2023/03/07 03:51:46;;;;;;;8.60;2.05;;;3.70;99.90;;;;;;5032839;28;20044;-67
2023/03/07 03:54:11;;;;;;;6.78;1.40;;;3.70;99.90;;;;;;5029337;28;20137;-67
2023/03/07 03:56:37;;;;;;;6.80;1.55;;;3.70;99.90;;;;;;5033032;28;20465;-67
2023/03/07 03:59:03;;;;;;;8.77;1.60;;;3.70;99.90;;;;;;5034377;28;20060;-68
2023/03/07 04:01:29;;;;;;;10.98;2.50;;;3.70;99.90;;;;;;5024928;28;20060;-67
2023/03/07 04:03:56;;;;;;;15.73;2.45;;;3.70;99.90;;;;;;5027064;28;20046;-67
2023/03/07 04:06:31;;;;;;;10.80;2.05;;;3.70;99.90;;;;;;5029877;28;20045;-67
2023/03/07 04:08:57;;;;;;;8.80;1.70;;;3.70;99.90;;;;;;5029977;28;20454;-67
2023/03/07 04:11:23;;;;;;;8.52;2.20;;;3.70;99.90;;;;;;5028979;28;20502;-67
2023/03/07 04:13:49;;;;;;;8.98;1.98;;;3.70;99.90;;;;;;5029648;28;20057;-67
2023/03/07 04:16:15;;;;;;;6.95;2.15;;;3.70;99.90;;;;;;5030904;28;20133;-67
2023/03/07 04:18:41;;;;;;;13.73;2.67;;;3.70;99.90;;;;;;5028201;28;20524;-67
2023/03/07 04:21:09;;;;;;;11.70;2.17;;;3.70;99.90;;;;;;5028212;28;20124;-67
2023/03/07 04:23:36;;;;;;;7.40;1.88;;;3.80;99.90;;;;;;5017445;28;20052;-67
2023/03/07 04:26:04;;;;;;;10.40;1.95;;;3.80;99.90;;;;;;5019200;28;20054;-67
2023/03/07 04:31:07;;;;;;;11.60;2.10;;;3.80;99.90;;;;;;5027748;28;20071;-67
2023/03/07 04:33:33;;;;;;;13.18;2.40;;;3.80;99.90;;;;;;5019737;28;20572;-67
2023/03/07 04:35:59;;;;;;;10.43;2.25;;;3.90;99.90;;;;;;5025568;28;20044;-68
2023/03/07 04:38:24;;;;;;;10.00;1.92;;;3.80;99.90;;;;;;5024206;28;20073;-67
2023/03/07 04:40:50;;;;;;;8.00;1.77;;;3.80;99.90;;;;;;5025830;28;20047;-68
2023/03/07 04:43:16;;;;;;;14.85;2.17;;;3.80;99.90;;;;;;5024866;28;20049;-67
2023/03/07 04:45:41;;;;;;;12.30;2.08;;;3.80;99.90;;;;;;5022049;28;20049;-67
2023/03/07 04:48:07;;;;;;;10.02;2.17;;;3.80;99.90;;;;;;5025738;28;20045;-67
2023/03/07 04:50:33;;;;;;;9.65;1.92;;;3.80;99.90;;;;;;5025875;28;20111;-67
2023/03/07 04:52:58;;;;;;;14.85;2.08;;;3.80;99.90;;;;;;5012385;28;20535;-68
2023/03/07 04:55:24;;;;;;;14.95;2.03;;;3.80;99.90;;;;;;5026564;28;20037;-68
2023/03/07 04:57:50;;;;;;;11.38;1.80;;;3.80;99.90;;;;;;5022455;28;20033;-68
2023/03/07 05:00:17;;;;;;;8.93;1.60;;;3.80;99.90;;;;;;5016722;28;20648;-68
2023/03/07 05:02:44;;;;;;;9.85;1.67;;;3.80;99.90;;;;;;5013331;28;20053;-68
2023/03/07 05:05:10;;;;;;;10.95;2.40;;;3.80;99.90;;;;;;5019657;28;20777;-68
2023/03/07 05:07:36;;;;;;;9.27;2.00;;;3.80;99.90;;;;;;5023611;28;20057;-69
2023/03/07 05:10:01;;;;;;;8.07;1.77;;;3.80;99.90;;;;;;5022750;28;20064;-69
2023/03/07 05:12:27;;;;;;;9.27;1.60;;;3.80;99.90;;;;;;5024642;28;20106;-69
2023/03/07 05:14:53;;;;;;;8.48;1.92;;;3.80;99.90;;;;;;5023156;28;20052;-69
2023/03/07 05:17:19;;;;;;;11.68;2.05;;;3.80;99.90;;;;;;5028363;28;20041;-69
2023/03/07 05:19:44;;;;;;;9.68;2.17;;;3.70;99.90;;;;;;5026858;28;20113;-69
2023/03/07 05:22:10;;;;;;;12.57;2.13;;;3.70;99.90;;;;;;5027300;28;20049;-69
2023/03/07 05:24:36;;;;;;;10.82;2.05;;;3.70;99.90;;;;;;5023086;28;20041;-68
2023/03/07 05:27:02;;;;;;;10.18;1.45;;;3.70;99.90;;;;;;5028788;28;20053;-69
2023/03/07 05:29:27;;;;;;;11.35;1.92;;;3.70;99.90;;;;;;5024575;28;20046;-69
2023/03/07 05:31:53;;;;;;;6.82;1.67;;;3.70;99.90;;;;;;5020280;28;20105;-69
2023/03/07 05:34:19;;;;;;;14.50;2.13;;;3.70;99.90;;;;;;5027573;28;20049;-69
2023/03/07 05:36:45;;;;;;;11.65;1.80;;;3.70;99.90;;;;;;5029058;28;20034;-69
2023/03/07 05:39:11;;;;;;;11.38;1.90;;;3.70;99.90;;;;;;5025919;28;20048;-69
2023/03/07 05:41:37;;;;;;;9.25;1.98;;;3.70;99.90;;;;;;5025439;28;20034;-69
2023/03/07 05:44:02;;;;;;;13.25;2.65;;;3.70;99.90;;;;;;5026127;28;20060;-69
2023/03/07 05:46:28;;;;;;;8.13;1.65;;;3.70;99.90;;;;;;5027205;28;20041;-69
2023/03/07 05:48:54;;;;;;;13.20;1.73;;;3.60;99.90;;;;;;5016085;28;20049;-69
2023/03/07 05:51:20;;;;;;;11.23;1.83;;;3.60;99.90;;;;;;5027127;28;20041;-69
2023/03/07 05:53:46;;;;;;;14.27;2.30;;;3.70;99.90;;;;;;5024938;28;20037;-69
2023/03/07 05:56:12;;;;;;;9.73;1.63;;;3.60;99.90;;;;;;5024270;28;20442;-69
2023/03/07 05:58:38;;;;;;;16.60;2.10;;;3.60;99.90;;;;;;5025367;28;20500;-68
2023/03/07 06:01:04;;;;;;;14.05;2.28;;;3.60;99.90;;;;;;5026163;28;20077;-68
2023/03/07 06:03:30;;;;;;;9.07;1.55;;;3.60;99.90;;;;;;5017837;28;20142;-68
2023/03/07 06:05:56;;;;;;;10.13;1.95;;;3.60;99.90;;;;;;5025221;28;20451;-69
2023/03/07 06:08:22;;;;;;;11.65;1.90;;;3.60;99.90;;;;;;5026860;28;20061;-68
2023/03/07 06:10:52;;;;;;;10.55;1.83;;;3.60;99.90;;;;;;5021904;28;20041;-69
2023/03/07 06:13:21;;;;;;;10.60;2.35;;;3.70;99.90;;;;;;5022839;28;20114;-69
2023/03/07 06:15:54;;;;;;;10.02;1.73;;;3.60;99.90;;;;;;5027227;28;20048;-69
2023/03/07 06:18:20;;;;;;;14.38;1.70;;;3.60;99.90;;;;;;5019636;28;20049;-69
2023/03/07 06:20:57;;;;;;;9.27;1.70;;;3.70;99.90;;;;;;5028311;28;20037;-69
2023/03/07 06:23:24;;;;;;;12.40;1.83;;;3.60;99.90;;;;;;5021158;28;20516;-69
2023/03/07 06:25:50;;;;;;;14.05;1.80;;;3.60;99.90;;;;;;5019800;28;20067;-68
2023/03/07 06:28:15;;;;;;;11.30;1.80;;;3.70;99.90;;;;;;5022951;28;20132;-69
2023/03/07 06:30:41;;;;;;;13.68;2.83;;;3.60;99.90;;;;;;5015899;28;20124;-69
2023/03/07 06:33:07;;;;;;;11.13;1.92;;;3.70;99.90;;;;;;5022279;28;20053;-69
2023/03/07 06:35:33;;;;;;;8.32;1.60;;;3.60;99.90;;;;;;5021772;28;20048;-69
2023/03/07 06:37:59;;;;;;;8.70;1.85;;;3.70;99.90;;;;;;5018653;28;20049;-69
2023/03/07 06:40:25;;;;;;;11.25;1.80;;;3.60;99.90;;;;;;5013378;28;20424;-69
2023/03/07 06:42:52;;;;;;;11.30;1.95;;;3.70;99.90;;;;;;5014432;28;20046;-69
2023/03/07 06:45:21;;;;;;;10.30;1.80;;;3.70;99.90;;;;;;5022107;28;20060;-70
2023/03/07 06:47:46;;;;;;;8.02;1.52;;;3.70;99.90;;;;;;5012866;28;20073;-69
2023/03/07 06:50:12;;;;;;;12.48;1.90;;;3.80;99.90;;;;;;5022402;28;20103;-70
2023/03/07 06:52:38;;;;;;;11.60;2.40;;;3.60;99.90;;;;;;5020722;28;20048;-70
2023/03/07 06:55:04;;;;;;;10.63;1.77;;;3.70;99.90;;;;;;5021779;28;20396;-69
2023/03/07 06:57:32;;;;;;;9.43;2.45;;;3.70;99.90;;;;;;5016793;28;20081;-69
2023/03/07 06:59:58;;;;;;;13.77;2.35;;;3.70;99.90;;;;;;5022776;28;20111;-69
2023/03/07 07:02:24;;;;;;;9.98;2.33;;;3.70;99.90;;;;;;5021524;28;20443;-69
2023/03/07 07:04:50;;;;;;;9.48;1.63;;;3.70;99.90;;;;;;5023437;28;20058;-69
2023/03/07 07:07:15;;;;;;;8.68;1.67;;;3.70;99.90;;;;;;5026742;28;20040;-69
2023/03/07 07:09:41;;;;;;;9.05;1.60;;;3.70;99.90;;;;;;5015716;28;20594;-69
2023/03/07 07:12:07;;;;;;;9.00;1.45;;;3.70;99.90;;;;;;5023121;28;20069;-69
2023/03/07 07:14:33;;;;;;;7.70;1.50;;;3.70;99.90;;;;;;5020020;28;20060;-69
2023/03/07 07:16:59;;;;;;;8.02;1.40;;;3.70;99.90;;;;;;5022508;28;20073;-70
2023/03/07 07:19:25;;;;;;;10.32;1.80;;;3.60;99.90;;;;;;5008305;28;20048;-70
2023/03/07 07:21:52;;;;;;;10.32;1.80;;;3.60;99.90;;;;;;5018920;28;20046;-69
2023/03/07 07:24:18;;;;;;;9.57;1.90;;;3.70;99.90;;;;;;5020637;28;20060;-69
2023/03/07 07:26:44;;;;;;;7.43;1.33;;;3.60;99.90;;;;;;5014889;28;20480;-69
2023/03/07 07:29:10;;;;;;;10.95;1.92;;;3.60;99.90;;;;;;5022951;28;20061;-69
2023/03/07 07:31:36;;;;;;;9.70;1.73;;;3.70;99.90;;;;;;5023205;28;20045;-70
2023/03/07 07:34:02;;;;;;;9.45;1.75;;;3.70;99.90;;;;;;5023994;28;20079;-69
2023/03/07 07:36:28;;;;;;;7.18;1.65;;;3.70;99.90;;;;;;5025926;28;20053;-71
2023/03/07 07:38:54;;;;;;;6.00;1.20;;;3.70;99.90;;;;;;5023276;28;20034;-69
2023/03/07 07:41:22;;;;;;;9.00;1.73;;;3.70;99.90;;;;;;5026364;28;20096;-69
2023/03/07 07:43:52;;;;;;;8.05;1.83;;;3.60;99.90;;;;;;5030029;28;20059;-70
2023/03/07 07:46:17;;;;;;;9.18;1.80;;;3.60;99.90;;;;;;5036651;28;20073;-70
2023/03/07 07:48:46;;;;;;;8.88;1.33;;;3.60;99.90;;;;;;5028510;28;20037;-70
2023/03/07 07:51:11;;;;;;;8.63;1.25;;;3.60;99.90;;;;;;5029329;28;20042;-70
2023/03/07 07:53:37;;;;;;;5.25;1.10;;;3.50;99.90;;;;;;5031105;28;20579;-70
2023/03/07 07:56:03;;;;;;;5.55;1.30;;;3.40;99.90;;;;;;5025500;28;20107;-70
2023/03/07 07:58:28;;;;;;;8.90;1.10;;;3.40;99.90;;;;;;5034078;28;20048;-69
2023/03/07 08:00:54;;;;;;;9.07;1.45;;;3.40;99.90;;;;;;5027108;28;20049;-69
2023/03/07 08:03:20;;;;;;;5.65;1.20;;;3.40;99.90;;;;;;5033894;28;20045;-70
2023/03/07 08:05:47;;;;;;;8.25;1.77;;;3.40;99.90;;;;;;5032572;28;20073;-72
2023/03/07 08:08:17;;;;;;;10.85;1.25;;;3.50;99.90;;;;;;5027450;28;20067;-70
2023/03/07 08:10:45;;;;;;;10.00;1.45;;;3.50;99.90;;;;;;5029452;28;20041;-70
2023/03/07 08:13:12;;;;;;;9.18;1.75;;;3.40;99.90;;;;;;5027374;28;20107;-70
2023/03/07 08:15:38;;;;;;;6.93;1.52;;;3.40;99.90;;;;;;5013659;28;20037;-70
2023/03/07 08:18:04;;;;;;;8.10;1.50;;;3.50;99.90;;;;;;5029372;28;20370;-70
2023/03/07 08:20:30;;;;;;;6.32;1.50;;;3.40;99.90;;;;;;5031805;28;20053;-69
2023/03/07 08:22:55;;;;;;;6.40;1.38;;;3.40;99.90;;;;;;5031980;28;20051;-69
2023/03/07 08:25:23;;;;;;;7.97;1.48;;;3.30;99.90;;;;;;5033497;28;20050;-69
2023/03/07 08:27:54;;;;;;;9.10;2.00;;;3.30;99.90;;;;;;5032871;28;20045;-69
2023/03/07 08:30:21;;;;;;;9.48;1.50;;;3.30;99.90;;;;;;5028898;28;20396;-68
2023/03/07 08:32:48;;;;;;;;;;;3.20;99.90;;;;;;5029956;28;20044;-69
2023/03/07 08:35:14;;;;;;;7.60;1.65;;;3.20;99.90;;;;;;5031797;28;19940;-69
2023/03/07 08:37:39;;;;;;;8.00;1.25;;;3.10;99.90;;;;;;5030981;28;20477;-70
2023/03/07 08:40:05;;;;;;;5.53;1.23;;;3.10;99.90;;;;;;5032941;28;20063;-70
2023/03/07 08:42:31;;;;;;;9.10;1.60;;;3.10;99.90;;;;;;5031172;28;20037;-69
2023/03/07 08:44:57;;;;;;;6.75;1.63;;;3.10;99.90;;;;;;5028762;28;20051;-69
2023/03/07 08:47:23;;;;;;;8.30;1.88;;;3.10;99.90;;;;;;5027869;28;20037;-70
2023/03/07 08:49:51;;;;;;;4.95;1.48;;;3.00;99.90;;;;;;5029848;28;20077;-69
2023/03/07 08:52:17;;;;;;;9.20;1.45;;;3.00;99.90;;;;;;5032226;28;20044;-69
2023/03/07 08:54:43;;;;;;;8.30;1.38;;;3.00;99.90;;;;;;5025584;28;20054;-68
2023/03/07 08:57:08;;;;;;;6.70;1.80;;;3.00;99.90;;;;;;5028951;28;20036;-68
2023/03/07 08:59:34;;;;;;;7.65;1.35;;;3.10;99.90;;;;;;5042772;28;20500;-68
2023/03/07 09:02:00;;;;;;;7.07;1.40;;;3.10;99.90;;;;;;5048847;28;20057;-68
2023/03/07 09:04:25;;;;;;;7.97;1.35;;;3.10;99.90;;;;;;5032486;28;20080;-68
2023/03/07 09:06:51;;;;;;;8.02;1.60;;;3.10;99.90;;;;;;5027703;28;20080;-68
2023/03/07 09:09:17;;;;;;;8.48;1.60;;;3.20;99.90;;;;;;5029112;28;20049;-70
2023/03/07 09:11:44;;;;;;;9.85;1.77;;;3.20;99.90;;;;;;5025523;28;20046;-67
2023/03/07 09:14:10;;;;;;;7.40;1.73;;;3.20;99.90;;;;;;5030991;28;20049;-68
2023/03/07 09:16:35;;;;;;;7.88;1.98;;;3.30;99.90;;;;;;5022226;28;20034;-69
2023/03/07 09:19:01;;;;;;;9.10;1.60;;;3.30;99.90;;;;;;5034789;28;20065;-69
2023/03/07 09:21:27;;;;;;;9.52;2.03;;;3.30;99.90;;;;;;5031254;28;20125;-69
2023/03/07 09:23:52;;;;;;;10.25;2.05;;;3.40;99.90;;;;;;5032080;28;20053;-72
2023/03/07 09:26:18;;;;;;;8.43;2.05;;;3.50;99.90;;;;;;5030898;28;20056;-71
2023/03/07 09:28:43;;;;;;;10.32;1.80;;;3.50;99.90;;;;;;5030645;28;20041;-69
2023/03/07 09:31:11;;;;;;;11.52;2.10;;;3.50;99.90;;;;;;5030224;28;20049;-70
2023/03/07 09:33:37;;;;;;;12.73;1.77;;;3.60;99.90;;;;;;5034858;28;20148;-70
2023/03/07 09:36:09;;;;;;;7.72;1.80;;;3.60;99.90;;;;;;5041110;28;20069;-69
2023/03/07 09:38:35;;;;;;;7.30;1.50;;;3.70;99.90;;;;;;5027005;28;20392;-70
2023/03/07 09:41:27;;;;;;;10.57;2.10;;;3.80;99.90;;;;;;5031447;28;20045;-70
2023/03/07 09:44:26;;;;;;;10.43;1.80;;;3.80;99.90;;;;;;5006928;28;20057;-76
2023/03/07 09:47:09;;;;;;;7.63;1.80;;;3.80;99.90;;;;;;5024243;28;20125;-67
2023/03/07 09:49:57;;;;;;;7.93;2.22;;;3.80;99.90;;;;;;5010429;28;20100;-68
2023/03/07 09:52:26;;;;;;;8.55;2.13;;;3.90;99.90;;;;;;5012340;28;20057;-68
2023/03/07 09:55:04;;;;;;;9.35;2.30;;;3.90;99.90;;;;;;5010470;28;20058;-68
2023/03/07 09:57:50;;;;;;;;;;;4.00;99.90;;;;;;5011275;28;20115;-68
2023/03/07 10:00:34;;;;;;;10.13;2.17;;;4.00;99.90;;;;;;5010439;28;19922;-68
2023/03/07 10:03:25;;;;;;;6.05;2.00;;;4.00;99.90;;;;;;5022067;28;20064;-68
2023/03/07 10:05:55;;;;;;;9.68;2.13;;;4.10;99.90;;;;;;5015041;28;20049;-68
2023/03/07 10:08:30;;;;;;;8.70;2.10;;;4.00;99.90;;;;;;5029151;28;20152;-68
2023/03/07 10:11:07;;;;;;;9.23;2.00;;;4.10;99.90;;;;;;5031226;28;20121;-67
2023/03/07 10:13:35;;;;;;;;;;;4.20;99.90;;;;;;5031561;28;20523;-68
2023/03/07 10:16:28;;;;;;;10.30;1.67;;;4.20;99.90;;;;;;5027591;28;19925;-68
2023/03/07 10:18:59;;;;;;;6.35;1.60;;;4.30;99.90;;;;;;5027841;28;20060;-68
2023/03/07 10:21:58;;;;;;;7.07;1.38;;;4.30;99.90;;;;;;5031381;28;20037;-68
2023/03/07 10:24:32;;;;;;;7.28;1.75;;;4.40;99.90;;;;;;5030714;28;20049;-68
2023/03/07 10:27:06;;;;;;;5.25;1.40;;;4.40;99.90;;;;;;5030668;28;20493;-68
2023/03/07 10:29:48;;;;;;;7.35;1.73;;;4.50;99.90;;;;;;5030493;28;20055;-68
2023/03/07 10:32:45;;;;;;;5.97;1.33;;;4.50;99.90;;;;;;5021790;28;20037;-68
2023/03/07 10:35:10;;;;;;;7.03;1.50;;;4.60;99.90;;;;;;5026621;28;20068;-68
2023/03/07 10:38:01;;;;;;;8.15;1.90;;;4.60;99.90;;;;;;5030418;28;20427;-68
2023/03/07 10:40:53;;;;;;;6.63;1.30;;;4.60;99.90;;;;;;5030099;28;20063;-68
2023/03/07 10:43:32;;;;;;;7.50;1.42;;;4.60;99.90;;;;;;5027459;28;20049;-68
2023/03/07 10:46:00;;;;;;;9.27;1.73;;;4.60;99.90;;;;;;5030635;28;20120;-67
2023/03/07 10:48:27;;;;;;;8.02;2.00;;;4.50;99.90;;;;;;5029099;28;20045;-68
2023/03/07 10:51:10;;;;;;;9.10;1.80;;;4.30;99.90;;;;;;5029957;28;20048;-68
2023/03/07 10:53:38;;;;;;;5.55;1.30;;;4.20;99.90;;;;;;5031063;28;20077;-68
2023/03/07 10:56:15;;;;;;;6.00;1.50;;;4.00;99.90;;;;;;5029425;28;20191;-68
2023/03/07 10:58:59;;;;;;;;;;;3.90;99.90;;;;;;5024455;28;20054;-67
2023/03/07 11:01:26;;;;;;;7.07;1.35;;;3.80;99.90;;;;;;5020921;28;19929;-70
2023/03/07 11:04:00;;;;;;;8.10;1.52;;;3.80;99.90;;;;;;5024790;28;20071;-69
2023/03/07 11:06:36;;;;;;;8.50;1.90;;;3.80;99.90;;;;;;5025195;28;20049;-68
2023/03/07 11:09:29;;;;;;;4.78;1.52;;;3.90;99.90;;;;;;5027917;28;20053;-68
2023/03/07 11:12:05;;;;;;;7.50;1.52;;;3.90;99.90;;;;;;5018773;28;20571;-68
2023/03/07 11:14:49;;;;;;;6.43;1.50;;;4.00;99.90;;;;;;5031325;28;20128;-69
2023/03/07 11:17:30;;;;;;;6.60;1.20;;;4.00;99.90;;;;;;5032211;28;20179;-67
2023/03/07 11:19:57;;;;;;;3.33;1.33;;;4.10;99.90;;;;;;5019405;28;20053;-68
2023/03/07 11:22:33;;;;;;;3.40;1.07;;;4.20;99.90;;;;;;5030172;28;20091;-68
2023/03/07 11:25:03;;;;;;;3.40;1.10;;;4.30;99.90;;;;;;5021305;28;20064;-67
2023/03/07 11:27:31;;;;;;;5.70;1.35;;;4.40;99.90;;;;;;5029164;28;20029;-67
2023/03/07 11:30:08;;;;;;;4.63;1.20;;;4.50;99.90;;;;;;5028903;28;20905;-68
2023/03/07 11:32:39;;;;;;;6.43;1.30;;;4.60;99.90;;;;;;5031598;28;20100;-69
2023/03/07 11:35:17;;;;;;;4.13;1.00;;;4.60;99.90;;;;;;5022008;28;20045;-69
2023/03/07 11:38:14;;;;;;;3.53;1.10;;;4.70;99.90;;;;;;5032662;28;20545;-70
2023/03/07 11:41:06;;;;;;;6.93;1.30;;;4.70;99.90;;;;;;5020711;28;20064;-69
2023/03/07 11:43:50;;;;;;;5.43;1.33;;;4.80;99.90;;;;;;5029055;28;20056;-69
2023/03/07 11:46:33;;;;;;;6.70;1.50;;;4.80;99.90;;;;;;5032237;28;20084;-69
2023/03/07 11:49:29;;;;;;;11.02;1.92;;;4.90;99.90;;;;;;5021547;28;20129;-68
2023/03/07 11:52:33;;;;;;;6.53;1.80;;;5.00;99.90;;;;;;5027167;28;20077;-69
2023/03/07 11:55:23;;;;;;;6.78;1.65;;;5.10;99.90;;;;;;5026981;28;20049;-68
2023/03/07 11:58:01;;;;;;;8.50;1.50;;;5.10;99.90;;;;;;5018913;28;20485;-69
2023/03/07 12:00:32;;;;;;;11.63;2.13;;;5.20;99.90;;;;;;5030801;28;20045;-67
2023/03/07 12:03:17;;;;;;;6.85;1.63;;;5.30;99.90;;;;;;5019745;28;20037;-68
2023/03/07 12:06:07;;;;;;;10.63;2.28;;;5.40;99.90;;;;;;5032279;28;20412;-69
2023/03/07 12:09:05;;;;;;;9.75;1.50;;;5.50;99.90;;;;;;5031832;28;20033;-68
2023/03/07 12:12:01;;;;;;;9.10;1.50;;;5.50;99.90;;;;;;5029563;28;20488;-70
2023/03/07 12:14:46;;;;;;;9.23;1.50;;;5.70;99.90;;;;;;5031409;28;20055;-73
2023/03/07 12:17:52;;;;;;;10.55;1.70;;;5.70;99.90;;;;;;5025071;28;20049;-69
2023/03/07 12:20:18;;;;;;;11.32;1.83;;;5.80;99.90;;;;;;5024315;28;20060;-66
2023/03/07 12:23:03;;;;;;;11.13;2.10;;;5.80;99.90;;;;;;5029589;28;20048;-66
2023/03/07 12:25:36;;;;;;;6.85;1.35;;;5.80;99.90;;;;;;5029415;28;20037;-66
2023/03/07 12:28:20;;;;;;;6.28;1.23;;;5.70;99.90;;;;;;5029915;28;20057;-66
2023/03/07 12:30:52;;;;;;;3.60;1.10;;;5.10;99.90;;;;;;5030366;28;20049;-69
2023/03/07 12:33:41;;;;;;;7.95;1.30;;;4.50;99.90;;;;;;5030716;28;20398;-65
2023/03/07 12:36:15;;;;;;;6.60;1.45;;;4.10;99.90;;;;;;5029938;28;20045;-68
2023/03/07 12:38:53;;;;;;;7.03;1.45;;;3.70;99.90;;;;;;5026847;28;20052;-66
2023/03/07 12:41:34;;;;;;;8.38;1.60;;;3.50;99.90;;;;;;5024492;28;20045;-67
2023/03/07 12:44:06;;;;;;;6.10;1.27;;;3.30;99.90;;;;;;5017860;28;20099;-65
2023/03/07 12:46:38;;;;;;;6.63;1.33;;;3.10;99.90;;;;;;5024919;28;20396;-67
2023/03/07 12:49:20;;;;;;;6.85;1.60;;;3.10;99.90;;;;;;5025798;28;20408;-66
2023/03/07 12:51:54;;;;;;;7.63;1.83;;;3.00;99.90;;;;;;5020148;28;20401;-67
2023/03/07 12:54:29;;;;;;;9.65;2.00;;;2.90;99.90;;;;;;5024209;28;20081;-67
2023/03/07 12:57:16;;;;;;;8.68;1.60;;;2.90;99.90;;;;;;5028221;28;20053;-66
2023/03/07 12:59:43;;;;;;;8.00;1.80;;;2.90;99.90;;;;;;5027997;28;20067;-66
2023/03/07 13:02:27;;;;;;;11.48;2.28;;;2.80;99.90;;;;;;5024675;28;20589;-68
2023/03/07 13:04:53;;;;;;;7.93;1.48;;;2.80;99.90;;;;;;5029138;28;20437;-67
2023/03/07 13:07:29;;;;;;;7.72;1.40;;;2.80;99.90;;;;;;5027179;28;20080;-68
2023/03/07 13:09:58;;;;;;;7.43;1.30;;;2.80;99.90;;;;;;5026042;28;20045;-68
2023/03/07 13:12:28;;;;;;;7.90;1.58;;;2.70;99.90;;;;;;5025053;28;20069;-70